Time;durP1;ratioP1;P1;durP2;ratioP2;P2;SDS_P1;SDS_P2;PMS_P1;PMS_P2;Temp;Humidity;BMP_temperature;BMP_pressure;BME280_temperature;BME280_humidity;BME280_pressure;Samples;Min_cycle;Max_cycle;Signal;HPM_P1;HPM_P2
2023/10/28 00:02:20;;;;;;;;;;;;;;;28.96;75.42;101069.16;5043107;28;65722;-41
2023/10/28 00:04:51;;;;;;;;;;;;;;;28.99;75.77;101059.84;5041924;28;70379;-41
2023/10/28 00:07:21;;;;;;;;;;;;;;;29.01;75.88;101059.66;5039514;28;65525;-41
2023/10/28 00:09:51;;;;;;;;;;;;;;;29.03;75.56;101060.25;5043728;28;70480;-42
2023/10/28 00:12:22;;;;;;;;;;;;;;;29.08;76.22;101065.91;5046725;28;66197;-42
2023/10/28 00:14:52;;;;;;;;;;;;;;;29.09;75.35;101073.00;5040493;28;70339;-41
2023/10/28 00:17:24;;;;;;;;;;;;;;;29.13;76.34;101074.25;5043542;28;66746;-42
2023/10/28 00:19:55;;;;;;;;;;;;;;;29.14;76.31;101075.91;5040951;28;70077;-41
2023/10/28 00:22:24;;;;;;;;;;;;;;;29.17;75.88;101086.31;5039086;28;66625;-42
2023/10/28 00:24:54;;;;;;;;;;;;;;;29.19;76.39;101078.81;5040230;28;68928;-41
2023/10/28 00:27:25;;;;;;;;;;;;;;;29.19;74.88;101081.53;5041269;28;66613;-41
2023/10/28 00:29:55;;;;;;;;;;;;;;;29.24;76.61;101087.16;5037106;28;70622;-42
2023/10/28 00:32:25;;;;;;;;;;;;;;;29.26;76.00;101082.38;5040210;28;66740;-41
2023/10/28 00:34:58;;;;;;;;;;;;;;;29.29;76.49;101089.25;5030904;28;70046;-42
2023/10/28 00:37:29;;;;;;;;;;;;;;;29.30;76.78;101086.31;5056466;28;66294;-41
2023/10/28 00:39:59;;;;;;;;;;;;;;;29.31;76.65;101097.97;5024144;28;70135;-42
2023/10/28 00:42:29;;;;;;;;;;;;;;;29.31;75.53;101104.22;5034485;28;65622;-41
2023/10/28 00:44:59;;;;;;;;;;;;;;;29.33;73.98;101106.69;5039578;28;69149;-41
2023/10/28 00:47:30;;;;;;;;;;;;;;;29.34;72.81;101111.91;5020259;28;65315;-42
2023/10/28 00:50:02;;;;;;;;;;;;;;;29.37;73.18;101106.09;5054758;28;68968;-43
2023/10/28 00:52:32;;;;;;;;;;;;;;;29.40;72.89;101097.59;5057242;28;67243;-41
2023/10/28 00:55:03;;;;;;;;;;;;;;;29.50;77.16;101101.75;5048626;28;69409;-41
2023/10/28 00:57:33;;;;;;;;;;;;;;;29.47;78.28;101107.56;5044654;28;66624;-43
2023/10/28 01:00:06;;;;;;;;;;;;;;;29.45;79.56;101115.88;5041210;28;70502;-42
2023/10/28 01:02:38;;;;;;;;;;;;;;;29.44;80.13;101103.41;5028995;28;66407;-42
2023/10/28 01:05:11;;;;;;;;;;;;;;;29.45;80.19;101110.50;5033345;28;70144;-42
2023/10/28 01:07:43;;;;;;;;;;;;;;;29.45;80.01;101115.03;5040003;28;66531;-42
2023/10/28 01:10:24;;;;;;;;;;;;;;;29.49;81.04;101121.72;5040821;28;69916;-43
2023/10/28 01:12:54;;;;;;;;;;;;;;;29.48;80.58;101128.16;5033203;28;66922;-42
2023/10/28 01:15:25;;;;;;;;;;;;;;;29.51;81.33;101125.88;5055221;28;70286;-43
2023/10/28 01:17:57;;;;;;;;;;;;;;;29.55;80.86;101131.69;5036869;28;66674;-43
2023/10/28 01:20:27;;;;;;;;;;;;;;;29.59;81.10;101132.97;5027480;28;70102;-41
2023/10/28 01:22:58;;;;;;;;;;;;;;;29.60;81.11;101134.63;5039545;28;66238;-41
2023/10/28 01:25:29;;;;;;;;;;;;;;;29.61;80.46;101138.97;5037024;28;69700;-44
2023/10/28 01:27:58;;;;;;;;;;;;;;;29.63;80.73;101139.66;5038927;28;65741;-41
2023/10/28 01:30:29;;;;;;;;;;;;;;;29.63;80.66;101139.66;5037101;28;70159;-41
2023/10/28 01:32:58;;;;;;;;;;;;;;;29.65;80.35;101148.38;5034774;28;65771;-40
2023/10/28 01:35:29;;;;;;;;;;;;;;;29.67;80.18;101146.31;5043140;28;69816;-40
2023/10/28 01:37:59;;;;;;;;;;;;;;;29.69;80.56;101149.63;5046834;28;65928;-43
2023/10/28 01:40:30;;;;;;;;;;;;;;;29.71;79.97;101146.72;5032441;28;69568;-41
2023/10/28 01:43:01;;;;;;;;;;;;;;;29.74;80.34;101146.31;5036570;28;67187;-43
2023/10/28 01:45:31;;;;;;;;;;;;;;;29.75;80.43;101143.38;5035158;28;70744;-42
2023/10/28 01:48:01;;;;;;;;;;;;;;;29.77;80.35;101145.91;5035227;28;66513;-44
2023/10/28 01:50:31;;;;;;;;;;;;;;;29.79;79.80;101144.66;5036303;28;69356;-43
2023/10/28 01:53:01;;;;;;;;;;;;;;;29.81;80.23;101147.13;5038329;28;66595;-43
2023/10/28 01:55:32;;;;;;;;;;;;;;;29.84;79.71;101144.88;5036501;28;70362;-41
2023/10/28 01:58:02;;;;;;;;;;;;;;;29.86;79.11;101154.66;5035115;28;65982;-43
2023/10/28 02:00:32;;;;;;;;;;;;;;;29.90;78.19;101150.50;5037709;28;69877;-42
2023/10/28 02:03:02;;;;;;;;;;;;;;;29.93;77.41;101156.31;5038156;28;67010;-42
2023/10/28 02:05:32;;;;;;;;;;;;;;;29.99;77.00;101154.66;5027180;28;69771;-42
2023/10/28 02:08:03;;;;;;;;;;;;;;;30.03;76.38;101155.91;5040117;28;66403;-42
2023/10/28 02:10:34;;;;;;;;;;;;;;;30.07;76.21;101146.34;5039278;28;70538;-42
2023/10/28 02:13:04;;;;;;;;;;;;;;;30.10;75.73;101151.31;5029346;28;66870;-43
2023/10/28 02:15:34;;;;;;;;;;;;;;;30.12;75.75;101149.25;5052498;28;70813;-42
2023/10/28 02:18:04;;;;;;;;;;;;;;;30.16;75.32;101155.06;5047575;28;66464;-43
2023/10/28 02:20:36;;;;;;;;;;;;;;;30.18;75.30;101148.41;5021656;28;69837;-42
2023/10/28 02:23:08;;;;;;;;;;;;;;;30.21;74.72;101142.56;5039651;28;67716;-43
2023/10/28 02:25:38;;;;;;;;;;;;;;;30.24;74.88;101150.31;5034687;28;70413;-43
2023/10/28 02:28:09;;;;;;;;;;;;;;;30.27;74.66;101147.19;5037746;28;66231;-44
2023/10/28 02:30:39;;;;;;;;;;;;;;;30.30;74.26;101150.50;5035870;28;70011;-42
2023/10/28 02:33:09;;;;;;;;;;;;;;;30.32;74.64;101145.72;5038326;28;66779;-43
2023/10/28 02:35:39;;;;;;;;;;;;;;;30.34;73.97;101141.78;5039422;28;70720;-43
2023/10/28 02:38:10;;;;;;;;;;;;;;;30.37;74.17;101143.19;5039102;28;66832;-43
2023/10/28 02:40:44;;;;;;;;;;;;;;;30.39;73.76;101139.25;5038437;28;69971;-42
2023/10/28 02:43:15;;;;;;;;;;;;;;;30.42;73.86;101138.00;5038792;28;66602;-43
2023/10/28 02:45:45;;;;;;;;;;;;;;;30.44;73.62;101138.63;5046241;28;69479;-42
2023/10/28 02:48:15;;;;;;;;;;;;;;;30.45;73.67;101133.00;5037718;28;65937;-43
2023/10/28 02:50:44;;;;;;;;;;;;;;;30.49;73.48;101130.69;5041459;28;70717;-43
2023/10/28 02:53:15;;;;;;;;;;;;;;;30.51;73.38;101128.63;5041406;28;66772;-43
2023/10/28 02:55:48;;;;;;;;;;;;;;;30.54;73.50;101130.91;5041824;28;70614;-44
2023/10/28 02:58:19;;;;;;;;;;;;;;;30.55;73.11;101129.03;5041458;28;66516;-43
2023/10/28 03:00:50;;;;;;;;;;;;;;;30.58;73.47;101137.53;5049043;28;70905;-41
2023/10/28 03:03:20;;;;;;;;;;;;;;;30.61;73.38;101126.28;5040191;28;66956;-42
2023/10/28 03:05:50;;;;;;;;;;;;;;;30.64;72.79;101131.28;5040604;28;70777;-42
2023/10/28 03:08:21;;;;;;;;;;;;;;;30.57;73.14;101119.66;5028604;28;65782;-44
2023/10/28 03:10:51;;;;;;;;;;;;;;;30.57;73.84;101119.66;5041382;28;70422;-41
2023/10/28 03:13:21;;;;;;;;;;;;;;;30.53;73.73;101112.97;5043016;28;66360;-43
2023/10/28 03:15:50;;;;;;;;;;;;;;;30.46;73.95;101112.19;5052398;28;70003;-43
2023/10/28 03:18:24;;;;;;;;;;;;;;;30.44;73.87;101120.50;5034255;28;65608;-43
2023/10/28 03:20:56;;;;;;;;;;;;;;;30.47;71.99;101114.66;5040632;28;70446;-43
2023/10/28 03:23:26;;;;;;;;;;;;;;;30.57;71.51;101114.22;5041109;28;66815;-43
2023/10/28 03:25:56;;;;;;;;;;;;;;;30.62;71.17;101111.72;5041755;28;70918;-43
2023/10/28 03:28:25;;;;;;;;;;;;;;;30.60;71.70;101107.56;5037607;28;65989;-42
2023/10/28 03:30:55;;;;;;;;;;;;;;;30.57;72.33;101097.97;5044325;28;69706;-42
2023/10/28 03:33:26;;;;;;;;;;;;;;;30.58;72.79;101099.63;5045456;28;66929;-43
2023/10/28 03:35:59;;;;;;;;;;;;;;;30.56;73.01;101096.31;5048242;28;69293;-43
2023/10/28 03:38:32;;;;;;;;;;;;;;;30.57;73.16;101097.97;5042599;28;66606;-41
2023/10/28 03:41:06;;;;;;;;;;;;;;;30.61;72.95;101088.38;5038639;28;70524;-42
2023/10/28 03:43:39;;;;;;;;;;;;;;;30.64;73.03;101087.94;5042824;28;67002;-43
2023/10/28 03:46:16;;;;;;;;;;;;;;;30.66;73.74;101085.88;5040566;28;70361;-42
2023/10/28 03:48:46;;;;;;;;;;;;;;;30.71;73.36;101077.94;5040938;28;67057;-43
2023/10/28 03:51:18;;;;;;;;;;;;;;;30.76;73.39;101071.03;5053640;28;69816;-42
2023/10/28 03:53:48;;;;;;;;;;;;;;;30.76;73.24;101068.31;5040911;28;66524;-44
2023/10/28 03:56:18;;;;;;;;;;;;;;;30.76;72.48;101063.75;5041199;28;70123;-43
2023/10/28 03:58:48;;;;;;;;;;;;;;;30.80;72.39;101059.59;5054836;28;66141;-40
2023/10/28 04:01:17;;;;;;;;;;;;;;;30.82;72.13;101046.69;5035505;28;70085;-44
2023/10/28 04:03:48;;;;;;;;;;;;;;;30.85;71.81;101040.81;5039153;28;65704;-45
2023/10/28 04:06:18;;;;;;;;;;;;;;;30.87;71.79;101040.59;5039428;28;69475;-44
2023/10/28 04:08:51;;;;;;;;;;;;;;;30.88;71.49;101036.84;5040441;28;66876;-43
2023/10/28 04:11:21;;;;;;;;;;;;;;;30.89;71.54;101030.38;5036553;28;68798;-44
2023/10/28 04:13:51;;;;;;;;;;;;;;;30.86;71.61;101037.06;5036224;28;64993;-42
2023/10/28 04:16:21;;;;;;;;;;;;;;;30.85;71.63;101021.88;5039738;28;70050;-43
2023/10/28 04:18:52;;;;;;;;;;;;;;;30.85;71.49;101013.75;5041902;28;66901;-45
2023/10/28 04:21:22;;;;;;;;;;;;;;;30.86;71.56;101019.97;5035974;28;71011;-42
2023/10/28 04:23:52;;;;;;;;;;;;;;;30.85;71.38;101021.88;5039674;28;66578;-42
2023/10/28 04:26:22;;;;;;;;;;;;;;;30.98;71.21;101012.00;5041299;28;70592;-49
2023/10/28 04:28:51;;;;;;;;;;;;;;;31.09;71.11;101009.44;5037053;28;66608;-43
2023/10/28 04:31:21;;;;;;;;;;;;;;;31.17;70.93;101005.59;5037094;28;70224;-43
2023/10/28 04:33:52;;;;;;;;;;;;;;;31.24;70.45;100998.28;5040703;28;66674;-42
2023/10/28 04:36:22;;;;;;;;;;;;;;;31.30;70.01;100993.84;5045900;28;70779;-43
2023/10/28 04:38:52;;;;;;;;;;;;;;;31.35;69.38;100985.88;5041501;28;66491;-42
2023/10/28 04:41:22;;;;;;;;;;;;;;;31.37;68.66;100983.78;5040072;28;70758;-42
2023/10/28 04:43:54;;;;;;;;;;;;;;;31.42;68.59;100981.25;5053929;28;66451;-41
2023/10/28 04:46:24;;;;;;;;;;;;;;;31.45;67.81;100978.09;5044770;28;70638;-42
2023/10/28 04:48:53;;;;;;;;;;;;;;;31.48;67.78;100971.41;5031717;28;67124;-41
2023/10/28 04:51:24;;;;;;;;;;;;;;;31.51;67.71;100974.53;5031590;28;68248;-42
2023/10/28 04:53:54;;;;;;;;;;;;;;;31.54;67.88;100968.66;5039038;28;66099;-43
2023/10/28 04:56:23;;;;;;;;;;;;;;;31.58;67.52;100959.00;5039688;28;70670;-42
2023/10/28 04:58:54;;;;;;;;;;;;;;;31.53;67.01;100956.13;5044181;28;66281;-43
2023/10/28 05:01:24;;;;;;;;;;;;;;;31.24;66.64;100945.97;5037738;28;70021;-42
2023/10/28 05:03:54;;;;;;;;;;;;;;;31.00;65.48;100939.47;5039813;28;65578;-42
2023/10/28 05:06:24;;;;;;;;;;;;;;;30.83;64.70;100939.16;5040288;28;70306;-44
2023/10/28 05:08:54;;;;;;;;;;;;;;;30.70;63.98;100934.63;5039036;28;66102;-42
2023/10/28 05:11:25;;;;;;;;;;;;;;;30.58;63.12;100918.25;5038794;28;69739;-43
2023/10/28 05:13:55;;;;;;;;;;;;;;;30.46;62.90;100918.13;5040811;28;65957;-41
2023/10/28 05:16:25;;;;;;;;;;;;;;;30.40;62.05;100907.34;5040223;28;70301;-41
2023/10/28 05:18:56;;;;;;;;;;;;;;;30.34;61.58;100902.75;5038833;28;65151;-43
2023/10/28 05:21:26;;;;;;;;;;;;;;;30.30;61.18;100896.13;5040371;28;69776;-43
2023/10/28 05:23:57;;;;;;;;;;;;;;;30.24;59.96;100887.84;5032037;28;65914;-43
2023/10/28 05:26:26;;;;;;;;;;;;;;;30.20;59.42;100892.00;5030539;28;70534;-41
2023/10/28 05:28:57;;;;;;;;;;;;;;;30.15;59.04;100872.88;5043890;28;66955;-43
2023/10/28 05:31:27;;;;;;;;;;;;;;;30.13;58.23;100869.53;5032048;28;70674;-42
2023/10/28 05:33:57;;;;;;;;;;;;;;;30.09;57.50;100862.06;5039600;28;66974;-42
2023/10/28 05:36:27;;;;;;;;;;;;;;;30.07;57.48;100865.00;5040815;28;69997;-41
2023/10/28 05:38:59;;;;;;;;;;;;;;;30.09;56.85;100851.25;5040600;28;65621;-42
2023/10/28 05:41:29;;;;;;;;;;;;;;;30.06;56.65;100849.78;5031320;28;71000;-42
2023/10/28 05:43:59;;;;;;;;;;;;;;;30.05;56.54;100837.31;5040006;28;66087;-43
2023/10/28 05:46:29;;;;;;;;;;;;;;;30.08;56.52;100834.19;5028732;28;69995;-40
2023/10/28 05:49:00;;;;;;;;;;;;;;;30.17;57.52;100821.22;5027316;28;65806;-41
2023/10/28 05:51:35;;;;;;;;;;;;;;;30.42;60.12;100832.16;5027929;28;69601;-41
2023/10/28 05:54:05;;;;;;;;;;;;;;;30.56;60.76;100819.34;5028171;28;66361;-44
2023/10/28 05:56:35;;;;;;;;;;;;;;;30.70;60.96;100810.91;5029485;28;70674;-42
2023/10/28 05:59:05;;;;;;;;;;;;;;;30.91;61.24;100800.78;5040323;28;66179;-44
2023/10/28 06:01:35;;;;;;;;;;;;;;;31.06;61.57;100790.41;5039801;28;69620;-41
2023/10/28 06:04:06;;;;;;;;;;;;;;;31.20;61.71;100788.38;5038470;28;67192;-42
2023/10/28 06:06:36;;;;;;;;;;;;;;;31.32;61.57;100772.22;5041053;28;70547;-42
2023/10/28 06:09:09;;;;;;;;;;;;;;;31.43;61.78;100771.50;5037924;28;65713;-41
2023/10/28 06:11:40;;;;;;;;;;;;;;;31.52;62.06;100769.31;5030613;28;70763;-43
2023/10/28 06:14:09;;;;;;;;;;;;;;;31.60;61.94;100767.09;5038774;28;66128;-42
2023/10/28 06:16:39;;;;;;;;;;;;;;;31.68;61.88;100762.41;5039820;28;69913;-41
2023/10/28 06:19:10;;;;;;;;;;;;;;;31.75;62.12;100768.59;5031092;28;65833;-43
2023/10/28 06:21:40;;;;;;;;;;;;;;;31.81;61.98;100756.81;5042846;28;70359;-43
2023/10/28 06:24:10;;;;;;;;;;;;;;;31.88;62.22;100765.69;5032945;28;66256;-43
2023/10/28 06:26:40;;;;;;;;;;;;;;;31.94;62.16;100766.69;5043799;28;69712;-42
2023/10/28 06:29:10;;;;;;;;;;;;;;;31.95;62.10;100758.31;5043922;28;66093;-43
2023/10/28 06:31:40;;;;;;;;;;;;;;;31.99;61.87;100743.25;5042176;28;70406;-43
2023/10/28 06:34:10;;;;;;;;;;;;;;;31.98;61.06;100751.59;5043568;28;66043;-41
2023/10/28 06:36:40;;;;;;;;;;;;;;;31.70;63.08;100753.00;5044755;28;69821;-43
2023/10/28 06:39:10;;;;;;;;;;;;;;;31.67;63.57;100755.34;5042289;28;65857;-44
2023/10/28 06:41:41;;;;;;;;;;;;;;;31.61;64.14;100747.06;5044616;28;70306;-43
2023/10/28 06:44:11;;;;;;;;;;;;;;;31.59;64.73;100738.34;5041435;28;66590;-43
2023/10/28 06:46:41;;;;;;;;;;;;;;;31.60;65.06;100745.41;5041176;28;70221;-43
2023/10/28 06:49:11;;;;;;;;;;;;;;;31.58;65.42;100758.34;5035586;28;66437;-42
2023/10/28 06:51:43;;;;;;;;;;;;;;;31.56;64.56;100774.03;5028942;28;69789;-43
2023/10/28 06:54:14;;;;;;;;;;;;;;;31.51;64.40;100779.31;5041678;28;66371;-42
2023/10/28 06:56:44;;;;;;;;;;;;;;;31.49;65.62;100765.16;5041383;28;69932;-43
2023/10/28 06:59:14;;;;;;;;;;;;;;;31.53;65.90;100770.94;5042335;28;65951;-41
2023/10/28 07:01:44;;;;;;;;;;;;;;;31.51;66.14;100784.75;5042802;28;70625;-41
2023/10/28 07:04:14;;;;;;;;;;;;;;;31.53;66.27;100792.63;5041903;28;66768;-41
2023/10/28 07:06:44;;;;;;;;;;;;;;;31.51;66.85;100773.03;5030794;28;70297;-41
2023/10/28 07:09:15;;;;;;;;;;;;;;;31.46;67.30;100760.19;5036140;28;66524;-43
2023/10/28 07:11:45;;;;;;;;;;;;;;;31.43;67.66;100743.56;5035435;28;70141;-42
2023/10/28 07:14:15;;;;;;;;;;;;;;;31.40;68.29;100720.44;5034171;28;66148;-41
2023/10/28 07:16:45;;;;;;;;;;;;;;;31.37;69.31;100704.63;5043274;28;70089;-42
2023/10/28 07:19:15;;;;;;;;;;;;;;;31.36;69.35;100706.50;5043718;28;67182;-42
2023/10/28 07:21:45;;;;;;;;;;;;;;;31.35;69.62;100701.28;5033054;28;69838;-43
2023/10/28 07:24:16;;;;;;;;;;;;;;;31.34;69.57;100691.50;5037967;28;67062;-42
2023/10/28 07:26:47;;;;;;;;;;;;;;;31.35;69.55;100687.75;5021502;28;69927;-43
2023/10/28 07:29:17;;;;;;;;;;;;;;;31.35;69.57;100685.03;5035018;28;64820;-44
2023/10/28 07:31:47;;;;;;;;;;;;;;;31.35;69.83;100671.47;5041437;28;70220;-42
2023/10/28 07:34:18;;;;;;;;;;;;;;;31.34;69.79;100675.22;5057720;28;65301;-42
2023/10/28 07:36:48;;;;;;;;;;;;;;;31.32;70.15;100677.38;5037153;28;70057;-42
2023/10/28 07:39:18;;;;;;;;;;;;;;;31.30;70.59;100668.63;5042976;28;66256;-42
2023/10/28 07:41:48;;;;;;;;;;;;;;;31.27;70.65;100664.50;5039409;28;69817;-41
2023/10/28 07:44:19;;;;;;;;;;;;;;;31.25;71.42;100649.50;5016171;28;65881;-42
2023/10/28 07:46:49;;;;;;;;;;;;;;;31.22;71.58;100639.13;5043290;28;70263;-43
2023/10/28 07:49:20;;;;;;;;;;;;;;;31.23;71.61;100638.06;5040591;28;65997;-41
2023/10/28 07:51:50;;;;;;;;;;;;;;;31.23;71.73;100646.19;5038828;28;69599;-44
2023/10/28 07:54:20;;;;;;;;;;;;;;;31.20;71.72;100655.59;5022798;28;66182;-42
2023/10/28 07:56:51;;;;;;;;;;;;;;;31.18;71.46;100671.28;5042427;28;71095;-42
2023/10/28 07:59:21;;;;;;;;;;;;;;;31.14;71.77;100676.31;5041719;28;66131;-43
2023/10/28 08:01:51;;;;;;;;;;;;;;;31.15;72.25;100677.16;5033469;28;70466;-43
2023/10/28 08:04:22;;;;;;;;;;;;;;;31.14;71.96;100675.47;5055220;28;66013;-43
2023/10/28 08:06:52;;;;;;;;;;;;;;;31.12;72.42;100662.19;5040322;28;70199;-41
2023/10/28 08:09:23;;;;;;;;;;;;;;;31.07;73.19;100664.75;5038502;28;66331;-43
2023/10/28 08:11:53;;;;;;;;;;;;;;;31.03;73.45;100660.00;5054909;28;70488;-41
2023/10/28 08:14:23;;;;;;;;;;;;;;;31.00;73.39;100663.97;5054399;28;67101;-46
2023/10/28 08:16:56;;;;;;;;;;;;;;;30.99;73.37;100667.75;5041621;28;71246;-42
2023/10/28 08:19:29;;;;;;;;;;;;;;;31.01;74.67;100664.78;5037716;28;66025;-42
2023/10/28 08:21:59;;;;;;;;;;;;;;;31.02;75.84;100656.47;5037528;28;70621;-41
2023/10/28 08:24:29;;;;;;;;;;;;;;;31.01;75.59;100649.41;5036862;28;67048;-43
2023/10/28 08:26:59;;;;;;;;;;;;;;;30.99;76.12;100648.78;5039993;28;70510;-42
2023/10/28 08:29:29;;;;;;;;;;;;;;;30.87;77.03;100658.72;5036374;28;66237;-41
2023/10/28 08:31:59;;;;;;;;;;;;;;;30.77;77.75;100658.38;5042470;28;70285;-42
2023/10/28 08:34:29;;;;;;;;;;;;;;;30.76;77.46;100667.53;5051776;28;68050;-42
2023/10/28 08:36:59;;;;;;;;;;;;;;;30.66;77.50;100662.66;5040847;28;69873;-43
2023/10/28 08:39:31;;;;;;;;;;;;;;;30.60;77.80;100644.63;5039618;28;65199;-42
2023/10/28 08:42:04;;;;;;;;;;;;;;;30.57;77.84;100636.94;5040617;28;70585;-43
2023/10/28 08:44:37;;;;;;;;;;;;;;;30.54;78.06;100638.22;5037530;28;66614;-42
2023/10/28 08:47:07;;;;;;;;;;;;;;;30.54;78.39;100642.81;5040906;28;70311;-42
2023/10/28 08:49:39;;;;;;;;;;;;;;;30.48;78.23;100647.25;5041322;28;66956;-43
2023/10/28 08:52:11;;;;;;;;;;;;;;;30.49;78.52;100643.47;5035126;28;70059;-42
2023/10/28 08:54:43;;;;;;;;;;;;;;;30.47;78.21;100650.97;5041908;28;66539;-42
2023/10/28 08:57:13;;;;;;;;;;;;;;;30.46;78.08;100652.03;5041544;28;69950;-43
2023/10/28 08:59:44;;;;;;;;;;;;;;;30.44;78.45;100654.13;5050019;28;66656;-44
2023/10/28 09:02:14;;;;;;;;;;;;;;;30.42;78.86;100653.53;5029748;28;70289;-42
2023/10/28 09:04:44;;;;;;;;;;;;;;;30.41;78.88;100666.22;5031819;28;67003;-43
2023/10/28 09:07:14;;;;;;;;;;;;;;;30.40;79.33;100680.81;5036261;28;69818;-42
2023/10/28 09:09:44;;;;;;;;;;;;;;;30.39;79.29;100678.31;5040835;28;65458;-42
2023/10/28 09:12:14;;;;;;;;;;;;;;;30.40;79.45;100690.81;5039835;28;69515;-42
2023/10/28 09:14:44;;;;;;;;;;;;;;;30.37;79.04;100692.09;5041632;28;66144;-42
2023/10/28 09:17:18;;;;;;;;;;;;;;;30.34;78.64;100703.38;5042399;28;70885;-41
2023/10/28 09:19:53;;;;;;;;;;;;;;;30.33;78.90;100711.69;5039470;28;65845;-41
2023/10/28 09:22:26;;;;;;;;;;;;;;;30.33;77.94;100711.69;5033111;28;69978;-41
2023/10/28 09:24:56;;;;;;;;;;;;;;;30.32;78.05;100710.88;5038300;28;66517;-41
2023/10/28 09:27:26;;;;;;;;;;;;;;;30.33;78.18;100722.50;5040959;28;70647;-42
2023/10/28 09:30:03;;;;;;;;;;;;;;;30.31;77.68;100724.59;5039869;28;66383;-42
2023/10/28 09:32:34;;;;;;;;;;;;;;;30.28;78.04;100721.31;5039682;28;70493;-40
2023/10/28 09:35:05;;;;;;;;;;;;;;;30.27;78.04;100730.47;5042303;28;66951;-42
2023/10/28 09:37:36;;;;;;;;;;;;;;;30.28;78.02;100742.09;5041181;28;70253;-43
2023/10/28 09:40:06;;;;;;;;;;;;;;;30.40;77.20;100744.94;5028327;28;66717;-42
2023/10/28 09:42:38;;;;;;;;;;;;;;;30.49;76.48;100740.91;5041025;28;69461;-41
2023/10/28 09:45:09;;;;;;;;;;;;;;;30.58;76.10;100736.03;5032607;28;66997;-40
2023/10/28 09:47:43;;;;;;;;;;;;;;;30.64;75.96;100746.81;5037932;28;70673;-41
2023/10/28 09:50:14;;;;;;;;;;;;;;;30.71;75.39;100731.34;5036618;28;66939;-41
2023/10/28 09:52:45;;;;;;;;;;;;;;;30.75;74.74;100731.72;5048278;28;70778;-41
2023/10/28 09:55:20;;;;;;;;;;;;;;;30.79;74.79;100727.53;5029982;28;66269;-40
2023/10/28 09:57:52;;;;;;;;;;;;;;;30.84;74.50;100730.44;5033741;28;69804;-42
2023/10/28 10:00:24;;;;;;;;;;;;;;;30.88;74.54;100725.38;5034642;28;66696;-41
2023/10/28 10:03:00;;;;;;;;;;;;;;;30.91;74.23;100727.63;5037287;28;70053;-43
2023/10/28 10:05:36;;;;;;;;;;;;;;;30.93;74.32;100728.25;5037821;28;66227;-42
2023/10/28 10:08:16;;;;;;;;;;;;;;;30.95;74.06;100720.72;5038452;28;70621;-41
2023/10/28 10:10:47;;;;;;;;;;;;;;;30.98;73.82;100720.28;5040335;28;65329;-41
2023/10/28 10:13:17;;;;;;;;;;;;;;;30.99;74.19;100721.94;5038356;28;68716;-42
2023/10/28 10:15:55;;;;;;;;;;;;;;;30.99;75.22;100721.94;5038774;28;66176;-42
2023/10/28 10:18:45;;;;;;;;;;;;;;;30.75;75.25;100682.16;5038029;28;70046;-42
2023/10/28 10:21:22;;;;;;;;;;;;;;;31.03;75.76;100727.72;5039543;28;66644;-42
2023/10/28 10:23:52;;;;;;;;;;;;;;;31.05;74.76;100721.03;5041054;28;70321;-41
2023/10/28 10:26:27;;;;;;;;;;;;;;;31.06;74.55;100717.25;5042137;28;66524;-42
2023/10/28 10:29:00;;;;;;;;;;;;;;;31.08;74.32;100717.03;5034671;28;69819;-40
2023/10/28 10:31:34;;;;;;;;;;;;;;;31.08;73.99;100717.03;5036743;28;42957;-41
2023/10/28 10:34:07;;;;;;;;;;;;;;;31.09;74.59;100722.25;5056496;28;70016;-42
2023/10/28 10:36:41;;;;;;;;;;;;;;;31.09;74.22;100733.06;5038823;28;66420;-42
2023/10/28 10:39:16;;;;;;;;;;;;;;;31.10;74.51;100745.56;5042574;28;70328;-45
2023/10/28 10:41:49;;;;;;;;;;;;;;;31.09;74.32;100749.34;5041833;28;66804;-42
2023/10/28 10:44:23;;;;;;;;;;;;;;;31.10;74.86;100750.97;5031633;28;70528;-42
2023/10/28 10:46:58;;;;;;;;;;;;;;;31.10;74.59;100750.16;5042018;28;66158;-42
2023/10/28 10:49:31;;;;;;;;;;;;;;;31.11;74.94;100755.34;5035604;28;70380;-45
2023/10/28 10:52:02;;;;;;;;;;;;;;;31.11;74.95;100754.50;5039635;28;66771;-42
2023/10/28 10:54:33;;;;;;;;;;;;;;;31.12;75.08;100761.56;5056039;28;70321;-43
2023/10/28 10:57:04;;;;;;;;;;;;;;;31.11;75.06;100760.75;5036827;28;67083;-42
2023/10/28 10:59:34;;;;;;;;;;;;;;;31.11;74.85;100760.75;5039300;28;70548;-43
2023/10/28 11:02:04;;;;;;;;;;;;;;;31.12;74.78;100762.44;5033394;28;65753;-42
2023/10/28 11:04:36;;;;;;;;;;;;;;;31.11;74.92;100763.47;5037631;28;70610;-42
2023/10/28 11:07:07;;;;;;;;;;;;;;;31.11;74.95;100763.47;5040424;28;66389;-43
2023/10/28 11:09:38;;;;;;;;;;;;;;;31.12;74.93;100773.25;5043261;28;68604;-43
2023/10/28 11:12:08;;;;;;;;;;;;;;;31.11;75.11;100774.31;5044393;28;65872;-43
2023/10/28 11:14:38;;;;;;;;;;;;;;;31.12;74.92;100777.84;5043624;28;70259;-43
2023/10/28 11:17:08;;;;;;;;;;;;;;;31.11;74.96;100777.00;5044643;28;66934;-42
2023/10/28 11:19:46;;;;;;;;;;;;;;;31.12;74.88;100769.69;5044112;28;70325;-42
2023/10/28 11:22:17;;;;;;;;;;;;;;;31.10;74.95;100767.22;5044135;28;65594;-42
2023/10/28 11:24:53;;;;;;;;;;;;;;;31.11;75.04;100763.47;5040570;28;68701;-45
2023/10/28 11:27:26;;;;;;;;;;;;;;;31.10;75.19;100766.41;5044010;28;66197;-43
2023/10/28 11:29:57;;;;;;;;;;;;;;;31.09;74.92;100771.00;5045516;28;70540;-43
2023/10/28 11:32:27;;;;;;;;;;;;;;;31.10;74.98;100772.66;5038273;28;67063;-42
2023/10/28 11:34:59;;;;;;;;;;;;;;;31.08;74.92;100777.47;5040433;28;71436;-43
2023/10/28 11:37:29;;;;;;;;;;;;;;;31.09;75.25;100771.00;5039457;28;66354;-42
2023/10/28 11:39:59;;;;;;;;;;;;;;;31.09;75.15;100773.72;5043289;28;70450;-43
2023/10/28 11:42:32;;;;;;;;;;;;;;;31.08;75.01;100780.16;5043171;28;66562;-42
2023/10/28 11:45:06;;;;;;;;;;;;;;;31.08;75.19;100773.94;5042407;28;70581;-43
2023/10/28 11:47:36;;;;;;;;;;;;;;;31.08;75.09;100779.34;5037923;28;66903;-44
2023/10/28 11:50:07;;;;;;;;;;;;;;;31.07;75.28;100783.94;5041349;28;69831;-43
2023/10/28 11:52:38;;;;;;;;;;;;;;;31.07;75.04;100796.66;5041297;28;66006;-42
2023/10/28 11:55:09;;;;;;;;;;;;;;;31.06;74.99;100795.81;5036349;28;69298;-42
2023/10/28 11:57:39;;;;;;;;;;;;;;;31.06;75.02;100795.81;5036723;28;64982;-43
2023/10/28 12:00:11;;;;;;;;;;;;;;;31.06;74.85;100792.28;5039456;28;70372;-43
2023/10/28 12:02:41;;;;;;;;;;;;;;;31.07;74.95;100799.38;5032866;28;66059;-42
2023/10/28 12:05:12;;;;;;;;;;;;;;;31.05;75.01;100813.13;5055218;28;69384;-44
2023/10/28 12:07:42;;;;;;;;;;;;;;;31.06;75.29;100835.63;5040382;28;66795;-44
2023/10/28 12:10:13;;;;;;;;;;;;;;;31.05;74.73;100855.66;5041683;28;70470;-43
2023/10/28 12:12:43;;;;;;;;;;;;;;;31.05;74.93;100872.72;5034219;28;65357;-43
2023/10/28 12:15:13;;;;;;;;;;;;;;;31.04;74.88;100889.22;5039596;28;70642;-43
2023/10/28 12:17:44;;;;;;;;;;;;;;;31.05;74.67;100904.41;5031334;28;65760;-42
2023/10/28 12:20:14;;;;;;;;;;;;;;;31.04;74.90;100908.19;5041075;28;70026;-43
2023/10/28 12:22:44;;;;;;;;;;;;;;;31.04;74.56;100908.19;5048931;28;65652;-42
2023/10/28 12:25:15;;;;;;;;;;;;;;;31.03;74.79;100918.16;5036093;28;69131;-43
2023/10/28 12:27:45;;;;;;;;;;;;;;;31.02;74.78;100916.53;5036988;28;66644;-43
2023/10/28 12:30:15;;;;;;;;;;;;;;;31.02;74.71;100924.66;5042230;28;69704;-43
2023/10/28 12:32:50;;;;;;;;;;;;;;;31.01;74.92;100933.84;5042657;28;65899;-43
2023/10/28 12:35:20;;;;;;;;;;;;;;;30.89;74.49;100930.16;5042882;28;70525;-42
2023/10/28 12:37:50;;;;;;;;;;;;;;;31.02;74.59;100953.63;5042491;28;66835;-42
2023/10/28 12:40:20;;;;;;;;;;;;;;;31.01;74.83;100947.38;5038091;28;70439;-42
2023/10/28 12:42:50;;;;;;;;;;;;;;;31.01;74.96;100954.66;5029372;28;65435;-43
2023/10/28 12:45:20;;;;;;;;;;;;;;;31.00;74.55;100956.53;5040984;28;69926;-42
2023/10/28 12:47:51;;;;;;;;;;;;;;;30.99;74.59;100957.59;5042821;28;66007;-41
2023/10/28 12:50:22;;;;;;;;;;;;;;;30.99;74.88;100971.16;5039454;28;69807;-43
2023/10/28 12:52:52;;;;;;;;;;;;;;;30.98;74.24;100979.47;5042343;28;67120;-41
2023/10/28 12:55:22;;;;;;;;;;;;;;;30.98;74.68;100980.34;5042028;28;69708;-42